Time;durP1;ratioP1;P1;durP2;ratioP2;P2;SDS_P1;SDS_P2;PMS_P1;PMS_P2;Temp;Humidity;BMP_temperature;BMP_pressure;BME280_temperature;BME280_humidity;BME280_pressure;Samples;Min_cycle;Max_cycle;Signal;HPM_P1;HPM_P2
2022/07/25 00:02:17;;;;;;;6.60;6.03;;;;;;;;;;5031310;28;20449;-49
2022/07/25 00:04:43;;;;;;;8.17;6.80;;;;;;;;;;5030766;28;20433;-49
2022/07/25 00:07:09;;;;;;;6.00;5.40;;;;;;;;;;5045649;28;20440;-50
2022/07/25 00:09:35;;;;;;;6.50;5.90;;;;;;;;;;5047309;28;20504;-50
2022/07/25 00:12:01;;;;;;;6.90;6.20;;;;;;;;;;5034872;28;20430;-50
2022/07/25 00:14:27;;;;;;;6.90;6.20;;;;;;;;;;5042176;28;20560;-49
2022/07/25 00:16:53;;;;;;;7.10;6.37;;;;;;;;;;5034195;28;20497;-50
2022/07/25 00:19:19;;;;;;;6.70;6.10;;;;;;;;;;5035086;28;20446;-50
2022/07/25 00:21:45;;;;;;;7.90;7.20;;;;;;;;;;5030820;28;20425;-49
2022/07/25 00:24:11;;;;;;;7.33;6.63;;;;;;;;;;5037848;28;20797;-51
2022/07/25 00:26:37;;;;;;;6.40;5.80;;;;;;;;;;5033096;28;20453;-52
2022/07/25 00:29:03;;;;;;;6.83;6.13;;;;;;;;;;5030093;28;20446;-49
2022/07/25 00:31:29;;;;;;;6.30;5.80;;;;;;;;;;5048978;28;20874;-50
2022/07/25 00:33:55;;;;;;;7.33;6.63;;;;;;;;;;5045591;28;20426;-50
2022/07/25 00:36:21;;;;;;;9.50;7.00;;;;;;;;;;5033101;28;20788;-50
2022/07/25 00:38:47;;;;;;;8.13;5.90;;;;;;;;;;5039999;28;20490;-51
2022/07/25 00:41:13;;;;;;;6.10;5.60;;;;;;;;;;5054629;28;20402;-50
2022/07/25 00:43:43;;;;;;;7.80;7.00;;;;;;;;;;5053812;28;20512;-50
2022/07/25 00:46:11;;;;;;;6.83;6.27;;;;;;;;;;5047810;28;20511;-51
2022/07/25 00:48:37;;;;;;;6.00;5.50;;;;;;;;;;5043464;28;20995;-50
2022/07/25 00:51:04;;;;;;;7.83;6.00;;;;;;;;;;5054467;28;20404;-51
2022/07/25 00:53:30;;;;;;;7.17;6.57;;;;;;;;;;5053525;28;20946;-50
2022/07/25 00:55:55;;;;;;;6.30;5.80;;;;;;;;;;5054268;28;20445;-50
2022/07/25 00:58:21;;;;;;;6.93;6.33;;;;;;;;;;5053248;28;20458;-50
2022/07/25 01:00:47;;;;;;;7.03;6.43;;;;;;;;;;5042328;28;20464;-51
2022/07/25 01:03:14;;;;;;;7.57;5.17;;;;;;;;;;5034225;28;20524;-50
2022/07/25 01:05:40;;;;;;;7.10;6.40;;;;;;;;;;5034347;28;20418;-52
2022/07/25 01:08:06;;;;;;;7.33;6.20;;;;;;;;;;5037342;28;21002;-49
2022/07/25 01:10:32;;;;;;;6.07;5.47;;;;;;;;;;5033754;28;20829;-52
2022/07/25 01:12:58;;;;;;;7.77;6.33;;;;;;;;;;5033649;28;20426;-50
2022/07/25 01:15:25;;;;;;;8.40;6.13;;;;;;;;;;5042839;28;20484;-50
2022/07/25 01:17:51;;;;;;;6.30;5.80;;;;;;;;;;5035239;28;20426;-50
2022/07/25 01:20:18;;;;;;;7.67;6.47;;;;;;;;;;5034158;28;20916;-51
2022/07/25 01:22:44;;;;;;;5.93;5.43;;;;;;;;;;5038179;28;20428;-50
2022/07/25 01:25:11;;;;;;;6.57;5.87;;;;;;;;;;5048920;28;21362;-49
2022/07/25 01:27:37;;;;;;;6.20;5.67;;;;;;;;;;5034978;28;20460;-50
2022/07/25 01:30:04;;;;;;;8.83;6.70;;;;;;;;;;5039777;28;20449;-50
2022/07/25 01:32:30;;;;;;;6.90;6.27;;;;;;;;;;5038838;28;20456;-51
2022/07/25 01:34:56;;;;;;;6.60;5.43;;;;;;;;;;5049298;28;20957;-50
2022/07/25 01:37:22;;;;;;;6.77;6.00;;;;;;;;;;5035578;28;20418;-51
2022/07/25 01:39:48;;;;;;;7.03;6.33;;;;;;;;;;5050479;28;20998;-52
2022/07/25 01:42:14;;;;;;;6.40;5.57;;;;;;;;;;5053031;28;20421;-49
2022/07/25 01:44:40;;;;;;;7.10;5.87;;;;;;;;;;5054209;28;20409;-49
2022/07/25 01:47:06;;;;;;;6.63;6.00;;;;;;;;;;5047910;28;20517;-50
2022/07/25 01:49:32;;;;;;;7.97;5.73;;;;;;;;;;5054118;28;20425;-49
2022/07/25 01:51:58;;;;;;;6.40;5.67;;;;;;;;;;5053016;28;20911;-52
2022/07/25 01:54:24;;;;;;;6.33;5.77;;;;;;;;;;5049576;28;20465;-50
2022/07/25 01:56:50;;;;;;;6.40;5.90;;;;;;;;;;5053827;28;20409;-53
2022/07/25 01:59:16;;;;;;;5.83;5.33;;;;;;;;;;5052330;28;20449;-52
2022/07/25 02:01:42;;;;;;;6.47;5.80;;;;;;;;;;5051240;28;20758;-51
2022/07/25 02:04:08;;;;;;;6.30;5.70;;;;;;;;;;5041541;28;20473;-52
2022/07/25 02:06:34;;;;;;;6.20;5.70;;;;;;;;;;5041246;28;20457;-50
2022/07/25 02:09:00;;;;;;;6.60;5.60;;;;;;;;;;5032848;28;20423;-50
2022/07/25 02:11:26;;;;;;;6.87;6.17;;;;;;;;;;5041118;28;20512;-51
2022/07/25 02:13:52;;;;;;;6.97;5.80;;;;;;;;;;5033059;28;20442;-49
2022/07/25 02:16:18;;;;;;;5.80;5.30;;;;;;;;;;5042939;28;20466;-49
2022/07/25 02:18:44;;;;;;;6.27;5.73;;;;;;;;;;5038208;28;20876;-50
2022/07/25 02:21:11;;;;;;;6.47;5.87;;;;;;;;;;5032667;28;20484;-49
2022/07/25 02:23:37;;;;;;;5.70;5.20;;;;;;;;;;5035391;28;20908;-52
2022/07/25 02:26:03;;;;;;;5.67;5.20;;;;;;;;;;5033101;28;20419;-50
2022/07/25 02:28:29;;;;;;;6.53;5.93;;;;;;;;;;5031694;28;20540;-50
2022/07/25 02:30:55;;;;;;;6.27;5.70;;;;;;;;;;5032793;28;20421;-51
2022/07/25 02:33:21;;;;;;;7.37;6.67;;;;;;;;;;5045730;28;20436;-50
2022/07/25 02:35:47;;;;;;;7.17;6.43;;;;;;;;;;5047790;28;20900;-50
2022/07/25 02:38:18;;;;;;;6.23;5.63;;;;;;;;;;5039117;28;20449;-50
2022/07/25 02:40:45;;;;;;;6.23;5.73;;;;;;;;;;5053115;28;20447;-50
2022/07/25 02:43:11;;;;;;;6.57;6.07;;;;;;;;;;5051144;28;20455;-50
2022/07/25 02:45:37;;;;;;;6.40;5.80;;;;;;;;;;5049370;28;20909;-51
2022/07/25 02:48:03;;;;;;;5.83;5.33;;;;;;;;;;5045809;28;20504;-49
2022/07/25 02:50:29;;;;;;;6.33;5.83;;;;;;;;;;5032518;28;20407;-49
2022/07/25 02:52:56;;;;;;;7.50;6.90;;;;;;;;;;5041975;28;20429;-51
2022/07/25 02:55:22;;;;;;;6.43;5.37;;;;;;;;;;5052530;28;20460;-49
2022/07/25 02:57:48;;;;;;;7.80;7.10;;;;;;;;;;5051610;28;20422;-50
2022/07/25 03:00:14;;;;;;;8.43;6.57;;;;;;;;;;5048050;28;20492;-50
2022/07/25 03:02:40;;;;;;;6.37;5.87;;;;;;;;;;5040293;28;20428;-49
2022/07/25 03:05:07;;;;;;;6.93;6.33;;;;;;;;;;5041523;28;20426;-50
2022/07/25 03:07:33;;;;;;;8.77;7.30;;;;;;;;;;5036005;28;20428;-51
2022/07/25 03:09:59;;;;;;;6.00;5.50;;;;;;;;;;5042334;28;20969;-52
2022/07/25 03:12:25;;;;;;;7.23;6.53;;;;;;;;;;5034697;28;20425;-50
2022/07/25 03:14:51;;;;;;;7.10;5.63;;;;;;;;;;5048204;28;20909;-52
2022/07/25 03:17:17;;;;;;;6.30;5.70;;;;;;;;;;5034392;28;20426;-50
2022/07/25 03:19:43;;;;;;;7.40;6.70;;;;;;;;;;5032453;28;20457;-50
2022/07/25 03:22:09;;;;;;;7.87;6.53;;;;;;;;;;5037333;28;20933;-50
2022/07/25 03:24:35;;;;;;;7.47;5.70;;;;;;;;;;5041593;28;20497;-52
2022/07/25 03:27:02;;;;;;;6.60;6.00;;;;;;;;;;5036170;28;20471;-50
2022/07/25 03:29:28;;;;;;;6.83;6.23;;;;;;;;;;5034080;28;20492;-50
2022/07/25 03:31:54;;;;;;;7.63;5.80;;;;;;;;;;5037215;28;20433;-49
2022/07/25 03:34:20;;;;;;;6.00;5.10;;;;;;;;;;5040485;28;20414;-49
2022/07/25 03:36:46;;;;;;;6.57;5.97;;;;;;;;;;5035642;28;20429;-49
2022/07/25 03:39:13;;;;;;;5.40;5.00;;;;;;;;;;5041829;28;20481;-50
2022/07/25 03:41:39;;;;;;;5.77;5.27;;;;;;;;;;5031574;28;20926;-49
2022/07/25 03:44:05;;;;;;;5.90;5.33;;;;;;;;;;5030084;28;20402;-49
2022/07/25 03:46:31;;;;;;;7.47;6.00;;;;;;;;;;5039862;28;20431;-50
2022/07/25 03:48:57;;;;;;;6.57;5.97;;;;;;;;;;5031484;28;20519;-50
2022/07/25 03:51:23;;;;;;;7.10;6.20;;;;;;;;;;5032342;28;20418;-51
2022/07/25 03:54:01;;;;;;;6.30;5.70;;;;;;;;;;5032517;28;20418;-50
2022/07/25 03:56:31;;;;;;;6.33;5.73;;;;;;;;;;5039291;28;20469;-50
2022/07/25 03:58:57;;;;;;;6.30;5.70;;;;;;;;;;5031687;28;20418;-49
2022/07/25 04:01:23;;;;;;;12.93;6.90;;;;;;;;;;5033325;28;20488;-49
2022/07/25 04:03:49;;;;;;;5.17;4.77;;;;;;;;;;5032449;28;20912;-50
2022/07/25 04:06:15;;;;;;;7.60;5.70;;;;;;;;;;5036266;28;20420;-50
2022/07/25 04:08:41;;;;;;;6.50;6.00;;;;;;;;;;5052042;28;20449;-50
2022/07/25 04:11:07;;;;;;;6.03;5.43;;;;;;;;;;5044381;28;20529;-51
2022/07/25 04:13:33;;;;;;;5.70;5.30;;;;;;;;;;5036327;28;20402;-52
2022/07/25 04:15:59;;;;;;;5.13;4.67;;;;;;;;;;5038728;28;20473;-52
2022/07/25 04:18:25;;;;;;;7.27;6.00;;;;;;;;;;5044378;28;20433;-50
2022/07/25 04:20:51;;;;;;;6.67;5.93;;;;;;;;;;5035700;28;20909;-51
2022/07/25 04:23:17;;;;;;;5.90;5.30;;;;;;;;;;5036756;28;20437;-50
2022/07/25 04:25:43;;;;;;;5.90;5.07;;;;;;;;;;5043355;28;20535;-49
2022/07/25 04:28:09;;;;;;;6.60;6.00;;;;;;;;;;5035207;28;20437;-51
2022/07/25 04:30:35;;;;;;;9.97;6.03;;;;;;;;;;5043413;28;20426;-50
2022/07/25 04:33:01;;;;;;;5.40;5.00;;;;;;;;;;5051495;28;21001;-52
2022/07/25 04:35:27;;;;;;;7.00;6.40;;;;;;;;;;5053117;28;20479;-51
2022/07/25 04:37:53;;;;;;;5.17;4.70;;;;;;;;;;5046575;28;20432;-50
2022/07/25 04:40:19;;;;;;;5.90;5.30;;;;;;;;;;5039579;28;20487;-50
2022/07/25 04:42:45;;;;;;;6.47;5.57;;;;;;;;;;5050041;28;20933;-50
2022/07/25 04:45:11;;;;;;;6.10;5.50;;;;;;;;;;5041198;28;20509;-49
2022/07/25 04:47:37;;;;;;;5.90;5.30;;;;;;;;;;5048438;28;20533;-50
2022/07/25 04:50:03;;;;;;;5.67;5.10;;;;;;;;;;5042441;28;20521;-50
2022/07/25 04:52:29;;;;;;;7.20;5.30;;;;;;;;;;5045270;28;20444;-50
2022/07/25 04:54:55;;;;;;;6.50;5.80;;;;;;;;;;5037978;28;20530;-49
2022/07/25 04:57:21;;;;;;;5.60;5.20;;;;;;;;;;5039026;28;20418;-51
2022/07/25 04:59:47;;;;;;;5.23;4.83;;;;;;;;;;5038901;28;20521;-50
2022/07/25 05:02:13;;;;;;;6.60;6.00;;;;;;;;;;5041540;28;20947;-52
2022/07/25 05:04:39;;;;;;;5.53;4.73;;;;;;;;;;5034186;28;20800;-49
2022/07/25 05:07:05;;;;;;;5.47;4.97;;;;;;;;;;5034151;28;20596;-50
2022/07/25 05:09:31;;;;;;;5.37;4.87;;;;;;;;;;5046650;28;21041;-48
2022/07/25 05:11:57;;;;;;;5.43;4.90;;;;;;;;;;5049844;28;20833;-49
2022/07/25 05:14:23;;;;;;;6.70;5.97;;;;;;;;;;5036250;28;20420;-51
2022/07/25 05:16:49;;;;;;;5.13;4.73;;;;;;;;;;5035483;28;20429;-50
2022/07/25 05:19:15;;;;;;;5.40;4.90;;;;;;;;;;5033697;28;20498;-49
2022/07/25 05:21:41;;;;;;;5.20;4.80;;;;;;;;;;5034985;28;20417;-50
2022/07/25 05:24:08;;;;;;;4.97;4.57;;;;;;;;;;5033252;28;20410;-52
2022/07/25 05:26:34;;;;;;;6.23;4.63;;;;;;;;;;5038297;28;20814;-49
2022/07/25 05:29:00;;;;;;;5.40;4.90;;;;;;;;;;5033846;28;20425;-50
2022/07/25 05:31:26;;;;;;;8.63;5.60;;;;;;;;;;5038450;28;20438;-50
2022/07/25 05:33:52;;;;;;;6.17;5.20;;;;;;;;;;5034196;28;20943;-50
2022/07/25 05:36:18;;;;;;;4.90;4.60;;;;;;;;;;5033291;28;20554;-50
2022/07/25 05:38:44;;;;;;;6.23;5.63;;;;;;;;;;5041652;28;20975;-51
2022/07/25 05:41:09;;;;;;;5.77;5.30;;;;;;;;;;5042380;28;20454;-50
2022/07/25 05:43:35;;;;;;;5.60;5.03;;;;;;;;;;5038814;28;20428;-49
2022/07/25 05:46:02;;;;;;;4.77;4.37;;;;;;;;;;5035182;28;20493;-50
2022/07/25 05:48:28;;;;;;;5.40;4.70;;;;;;;;;;5034070;28;20477;-51
2022/07/25 05:50:55;;;;;;;15.80;5.30;;;;;;;;;;5045184;28;20416;-51
2022/07/25 05:53:21;;;;;;;5.20;4.80;;;;;;;;;;5041084;28;20535;-49
2022/07/25 05:55:47;;;;;;;5.73;5.23;;;;;;;;;;5048409;28;20524;-50
2022/07/25 05:58:13;;;;;;;5.80;5.13;;;;;;;;;;5036012;28;20572;-52
2022/07/25 06:00:40;;;;;;;6.10;5.50;;;;;;;;;;5034134;28;20406;-49
2022/07/25 06:03:05;;;;;;;5.47;5.07;;;;;;;;;;5049534;28;20425;-51
2022/07/25 06:05:31;;;;;;;5.37;4.87;;;;;;;;;;5043810;28;20918;-51
2022/07/25 06:07:57;;;;;;;5.27;4.77;;;;;;;;;;5048918;28;20775;-52
2022/07/25 06:10:23;;;;;;;5.93;5.53;;;;;;;;;;5033479;28;20442;-50
2022/07/25 06:12:49;;;;;;;5.70;5.20;;;;;;;;;;5033468;28;20413;-50
2022/07/25 06:15:15;;;;;;;5.23;4.73;;;;;;;;;;5034768;28;20802;-50
2022/07/25 06:17:41;;;;;;;6.03;5.57;;;;;;;;;;5033411;28;20426;-51
2022/07/25 06:20:08;;;;;;;5.80;5.30;;;;;;;;;;5037349;28;20434;-49
2022/07/25 06:22:34;;;;;;;6.17;5.40;;;;;;;;;;5033169;28;20420;-50
2022/07/25 06:25:01;;;;;;;5.63;5.03;;;;;;;;;;5036849;28;20449;-49
2022/07/25 06:27:28;;;;;;;5.30;4.80;;;;;;;;;;5032638;28;20445;-50
2022/07/25 06:29:54;;;;;;;6.70;4.67;;;;;;;;;;5032858;28;20464;-49
2022/07/25 06:32:20;;;;;;;7.90;5.50;;;;;;;;;;5049155;28;20430;-50
2022/07/25 06:34:46;;;;;;;6.97;6.23;;;;;;;;;;5039325;28;20462;-51
2022/07/25 06:37:12;;;;;;;5.03;4.63;;;;;;;;;;5037521;28;20811;-52
2022/07/25 06:39:38;;;;;;;5.07;4.67;;;;;;;;;;5032727;28;20442;-49
2022/07/25 06:42:04;;;;;;;5.57;5.10;;;;;;;;;;5032243;28;20430;-51
2022/07/25 06:44:33;;;;;;;5.70;5.20;;;;;;;;;;5035277;28;20427;-51
2022/07/25 06:47:00;;;;;;;4.97;4.57;;;;;;;;;;5033630;28;20440;-50
2022/07/25 06:49:26;;;;;;;6.27;5.67;;;;;;;;;;5031613;28;20445;-51
2022/07/25 06:51:52;;;;;;;6.20;5.70;;;;;;;;;;5044409;28;20429;-51
2022/07/25 06:54:18;;;;;;;6.30;5.70;;;;;;;;;;5034681;28;20409;-51
2022/07/25 06:56:45;;;;;;;6.00;5.50;;;;;;;;;;5051861;28;20417;-49
2022/07/25 06:59:11;;;;;;;8.30;5.43;;;;;;;;;;5038415;28;20467;-50
2022/07/25 07:01:37;;;;;;;7.13;5.77;;;;;;;;;;5032630;28;20456;-50
2022/07/25 07:04:04;;;;;;;10.03;6.43;;;;;;;;;;5031277;28;20418;-51
2022/07/25 07:06:30;;;;;;;5.23;4.83;;;;;;;;;;5033394;28;20422;-52
2022/07/25 07:08:56;;;;;;;5.60;5.10;;;;;;;;;;5033548;28;20441;-49
2022/07/25 07:11:22;;;;;;;9.57;5.23;;;;;;;;;;5031878;28;20524;-49
2022/07/25 07:13:48;;;;;;;8.63;5.87;;;;;;;;;;5039020;28;20417;-50
2022/07/25 07:16:14;;;;;;;5.40;4.90;;;;;;;;;;5040374;28;20454;-50
2022/07/25 07:18:40;;;;;;;8.87;5.70;;;;;;;;;;5040379;28;20506;-50
2022/07/25 07:21:06;;;;;;;6.20;5.60;;;;;;;;;;5052426;28;20397;-50
2022/07/25 07:23:32;;;;;;;8.33;5.57;;;;;;;;;;5042335;28;20421;-50
2022/07/25 07:25:58;;;;;;;5.20;4.80;;;;;;;;;;5035423;28;20928;-50
2022/07/25 07:28:24;;;;;;;5.70;5.30;;;;;;;;;;5032166;28;20504;-51
2022/07/25 07:30:50;;;;;;;5.67;5.17;;;;;;;;;;5031038;28;20425;-52
2022/07/25 07:33:16;;;;;;;6.50;5.77;;;;;;;;;;5029922;28;20917;-51
2022/07/25 07:35:43;;;;;;;7.33;5.43;;;;;;;;;;5040030;28;20502;-50
2022/07/25 07:38:10;;;;;;;6.33;5.03;;;;;;;;;;5046231;28;20458;-49
2022/07/25 07:40:36;;;;;;;5.53;5.03;;;;;;;;;;5034587;28;20410;-51
2022/07/25 07:43:02;;;;;;;5.80;5.30;;;;;;;;;;5047471;28;20786;-50
2022/07/25 07:45:29;;;;;;;5.53;5.13;;;;;;;;;;5056529;28;20407;-52
2022/07/25 07:47:55;;;;;;;8.40;5.77;;;;;;;;;;5046091;28;20433;-52
2022/07/25 07:50:22;;;;;;;6.37;5.70;;;;;;;;;;5052437;28;20947;-51
2022/07/25 07:52:48;;;;;;;6.00;5.50;;;;;;;;;;5046664;28;20437;-52
2022/07/25 07:57:59;;;;;;;6.17;5.67;;;;;;;;;;5040871;28;20435;-51
2022/07/25 08:00:26;;;;;;;6.17;5.63;;;;;;;;;;5056739;28;20822;-51
2022/07/25 08:02:54;;;;;;;5.60;5.10;;;;;;;;;;5047388;28;20862;-52
2022/07/25 08:05:22;;;;;;;5.77;5.27;;;;;;;;;;5050488;28;20508;-52
2022/07/25 08:07:50;;;;;;;5.47;5.07;;;;;;;;;;5051299;28;20779;-51
2022/07/25 08:10:16;;;;;;;6.10;5.60;;;;;;;;;;5047998;28;20429;-50
2022/07/25 08:12:42;;;;;;;7.67;5.27;;;;;;;;;;5047849;28;20421;-50
2022/07/25 08:15:08;;;;;;;7.00;6.40;;;;;;;;;;5045864;28;20485;-50
2022/07/25 08:17:34;;;;;;;5.40;4.90;;;;;;;;;;5035693;28;20428;-50
2022/07/25 08:20:05;;;;;;;6.30;5.80;;;;;;;;;;5035165;28;20437;-51
2022/07/25 08:22:36;;;;;;;4.83;4.43;;;;;;;;;;5046037;28;20433;-51
2022/07/25 08:25:02;;;;;;;5.37;4.97;;;;;;;;;;5049807;28;20979;-51
2022/07/25 08:27:28;;;;;;;5.73;5.23;;;;;;;;;;5045810;28;20437;-51
2022/07/25 08:29:53;;;;;;;5.63;5.23;;;;;;;;;;5047498;28;20449;-51
2022/07/25 08:32:19;;;;;;;5.80;5.30;;;;;;;;;;5055548;28;20462;-50
2022/07/25 08:34:45;;;;;;;7.03;4.47;;;;;;;;;;5051017;28;20463;-51
2022/07/25 08:37:11;;;;;;;5.47;4.90;;;;;;;;;;5053710;28;20179;-50
2022/07/25 08:39:37;;;;;;;5.73;5.07;;;;;;;;;;5036932;28;20513;-51
2022/07/25 08:42:03;;;;;;;5.93;5.30;;;;;;;;;;5038374;28;20823;-51
2022/07/25 08:44:32;;;;;;;5.83;5.33;;;;;;;;;;5035845;28;20431;-51
2022/07/25 08:46:59;;;;;;;6.50;4.73;;;;;;;;;;5054071;28;20900;-51
2022/07/25 08:49:26;;;;;;;13.73;5.03;;;;;;;;;;5042055;28;20868;-50
2022/07/25 08:51:52;;;;;;;5.70;5.20;;;;;;;;;;5051306;28;20516;-51
2022/07/25 08:54:18;;;;;;;5.27;4.80;;;;;;;;;;5039684;28;20411;-51
2022/07/25 08:56:44;;;;;;;6.30;5.70;;;;;;;;;;5049974;28;20406;-50
2022/07/25 08:59:10;;;;;;;6.03;5.50;;;;;;;;;;5032981;28;20496;-51
2022/07/25 09:01:39;;;;;;;6.10;5.47;;;;;;;;;;5036200;28;20441;-52
2022/07/25 09:04:07;;;;;;;4.83;4.43;;;;;;;;;;5032946;28;20964;-53
2022/07/25 09:06:33;;;;;;;5.93;5.53;;;;;;;;;;5026826;28;20423;-51
2022/07/25 09:08:59;;;;;;;5.20;4.80;;;;;;;;;;5033531;28;20824;-51
2022/07/25 09:11:26;;;;;;;5.90;5.43;;;;;;;;;;5043292;28;20508;-51
2022/07/25 09:14:03;;;;;;;6.07;4.90;;;;;;;;;;5052812;28;20929;-50
2022/07/25 09:16:30;;;;;;;6.50;5.90;;;;;;;;;;5051661;28;20535;-50
2022/07/25 09:19:05;;;;;;;5.63;5.20;;;;;;;;;;5042004;28;20478;-52
2022/07/25 09:21:31;;;;;;;5.53;5.03;;;;;;;;;;5049232;28;20433;-51
2022/07/25 09:24:07;;;;;;;7.20;4.97;;;;;;;;;;5037570;28;20487;-50
2022/07/25 09:26:42;;;;;;;5.53;5.13;;;;;;;;;;5050669;28;20766;-51
2022/07/25 09:29:08;;;;;;;5.87;5.30;;;;;;;;;;5048209;28;20471;-51
2022/07/25 09:31:34;;;;;;;6.57;5.30;;;;;;;;;;5053153;28;20524;-50
2022/07/25 09:34:06;;;;;;;6.03;5.40;;;;;;;;;;5047728;28;20433;-49
2022/07/25 09:36:34;;;;;;;5.87;4.60;;;;;;;;;;5037854;28;20461;-49
2022/07/25 09:39:00;;;;;;;5.30;4.80;;;;;;;;;;5035439;28;20446;-49
2022/07/25 09:41:36;;;;;;;7.00;6.30;;;;;;;;;;5044403;28;20440;-50
2022/07/25 09:44:02;;;;;;;5.60;5.20;;;;;;;;;;5035492;28;20486;-49
2022/07/25 09:46:29;;;;;;;5.97;5.20;;;;;;;;;;5045446;28;20425;-49
2022/07/25 09:48:57;;;;;;;6.00;4.80;;;;;;;;;;5034287;28;20539;-49
2022/07/25 09:51:23;;;;;;;5.27;4.83;;;;;;;;;;5044652;28;20418;-49
2022/07/25 09:53:49;;;;;;;6.43;5.93;;;;;;;;;;5035406;28;20410;-49
2022/07/25 09:56:15;;;;;;;5.40;5.00;;;;;;;;;;5046740;28;20801;-49
2022/07/25 09:58:41;;;;;;;5.50;4.97;;;;;;;;;;5039966;28;20203;-50
2022/07/25 10:01:07;;;;;;;6.17;5.57;;;;;;;;;;5045246;28;20425;-51
2022/07/25 10:03:34;;;;;;;5.83;5.33;;;;;;;;;;5049091;28;20175;-49
2022/07/25 10:06:08;;;;;;;6.83;5.40;;;;;;;;;;5051064;28;20489;-49
2022/07/25 10:08:38;;;;;;;6.67;6.17;;;;;;;;;;5045007;28;20814;-51
2022/07/25 10:11:05;;;;;;;5.73;5.23;;;;;;;;;;5043254;28;20457;-49
2022/07/25 10:13:35;;;;;;;5.43;4.93;;;;;;;;;;5042851;28;20432;-50
2022/07/25 10:16:01;;;;;;;5.60;5.10;;;;;;;;;;5052245;28;20511;-50
2022/07/25 10:18:29;;;;;;;5.57;5.07;;;;;;;;;;5033726;28;20972;-49
2022/07/25 10:20:56;;;;;;;5.50;5.00;;;;;;;;;;5038067;28;20453;-50
2022/07/25 10:23:24;;;;;;;6.80;4.67;;;;;;;;;;5032286;28;20422;-49
2022/07/25 10:26:02;;;;;;;5.50;5.00;;;;;;;;;;5041818;28;20432;-50
2022/07/25 10:28:38;;;;;;;5.47;4.90;;;;;;;;;;5034191;28;20438;-49
2022/07/25 10:31:14;;;;;;;5.73;5.13;;;;;;;;;;5038232;28;20436;-49
2022/07/25 10:33:41;;;;;;;8.63;6.20;;;;;;;;;;5035049;28;20425;-49
2022/07/25 10:36:09;;;;;;;5.70;5.20;;;;;;;;;;5048629;28;20473;-48
2022/07/25 10:38:38;;;;;;;8.10;5.63;;;;;;;;;;5038753;28;20457;-48
2022/07/25 10:41:07;;;;;;;6.00;5.47;;;;;;;;;;5053145;28;20393;-51
2022/07/25 10:43:36;;;;;;;6.00;5.50;;;;;;;;;;5037557;28;21133;-51
2022/07/25 10:46:11;;;;;;;7.77;5.13;;;;;;;;;;5032175;28;20411;-50
2022/07/25 10:48:37;;;;;;;6.23;5.63;;;;;;;;;;5036970;28;20456;-53
2022/07/25 10:51:08;;;;;;;6.40;5.63;;;;;;;;;;5040338;28;20475;-49
2022/07/25 10:53:35;;;;;;;5.93;5.43;;;;;;;;;;5031013;28;20430;-52
2022/07/25 10:56:08;;;;;;;6.37;5.87;;;;;;;;;;5032729;28;20901;-51
2022/07/25 10:58:50;;;;;;;5.70;4.93;;;;;;;;;;5044312;28;20450;-52
2022/07/25 11:01:20;;;;;;;6.17;5.67;;;;;;;;;;5052701;28;20401;-51
2022/07/25 11:03:46;;;;;;;6.03;5.13;;;;;;;;;;5036305;28;20450;-50
2022/07/25 11:06:13;;;;;;;9.23;6.10;;;;;;;;;;5033337;28;20437;-51
2022/07/25 11:08:40;;;;;;;6.43;5.73;;;;;;;;;;5030575;28;21003;-50
2022/07/25 11:11:06;;;;;;;5.50;5.00;;;;;;;;;;5030025;28;20860;-50
2022/07/25 11:13:42;;;;;;;7.33;4.80;;;;;;;;;;5030227;28;20406;-50
2022/07/25 11:16:08;;;;;;;6.07;5.40;;;;;;;;;;5039333;28;20504;-53
2022/07/25 11:18:36;;;;;;;5.70;5.20;;;;;;;;;;5032118;28;21058;-51
2022/07/25 11:21:03;;;;;;;6.50;4.50;;;;;;;;;;5033320;28;20520;-51
2022/07/25 11:23:28;;;;;;;5.63;5.23;;;;;;;;;;5033803;28;20437;-51
2022/07/25 11:26:04;;;;;;;5.67;5.27;;;;;;;;;;5033004;28;20433;-49
2022/07/25 11:28:40;;;;;;;5.83;5.43;;;;;;;;;;5037964;28;20205;-49
2022/07/25 11:31:06;;;;;;;5.73;5.23;;;;;;;;;;5048658;28;20425;-51
2022/07/25 11:33:33;;;;;;;7.53;5.90;;;;;;;;;;5032660;28;20440;-51
2022/07/25 11:35:59;;;;;;;6.83;6.13;;;;;;;;;;5031482;28;20532;-50
2022/07/25 11:38:25;;;;;;;6.40;5.87;;;;;;;;;;5031026;28;20461;-51
2022/07/25 11:40:51;;;;;;;5.67;5.17;;;;;;;;;;5036891;28;20414;-49
2022/07/25 11:43:24;;;;;;;6.03;5.63;;;;;;;;;;5035101;28;20417;-50
2022/07/25 11:45:58;;;;;;;7.20;6.10;;;;;;;;;;5047391;28;20475;-49
2022/07/25 11:48:35;;;;;;;5.87;5.23;;;;;;;;;;5046414;28;20481;-50
2022/07/25 11:51:17;;;;;;;5.93;5.50;;;;;;;;;;5052258;28;20411;-50
2022/07/25 11:53:50;;;;;;;6.17;5.57;;;;;;;;;;5045545;28;20428;-51
2022/07/25 11:56:18;;;;;;;5.90;5.40;;;;;;;;;;5046676;28;20563;-51
2022/07/25 11:58:49;;;;;;;6.00;5.50;;;;;;;;;;5036117;28;20483;-50
2022/07/25 12:01:15;;;;;;;6.20;5.60;;;;;;;;;;5047754;28;20429;-50
2022/07/25 12:03:44;;;;;;;7.97;5.17;;;;;;;;;;5047957;28;20921;-51
2022/07/25 12:06:10;;;;;;;7.53;4.40;;;;;;;;;;5050617;28;20444;-50
2022/07/25 12:08:37;;;;;;;6.00;4.80;;;;;;;;;;5037609;28;20446;-51
2022/07/25 12:11:03;;;;;;;5.07;4.67;;;;;;;;;;5037296;28;20475;-50
2022/07/25 12:13:30;;;;;;;4.40;4.00;;;;;;;;;;5040212;28;20421;-50
2022/07/25 12:15:57;;;;;;;4.50;4.20;;;;;;;;;;5030971;28;20977;-50
2022/07/25 12:18:23;;;;;;;4.47;4.17;;;;;;;;;;5030397;28;20945;-51
2022/07/25 12:20:49;;;;;;;4.53;4.20;;;;;;;;;;5030920;28;20434;-52
2022/07/25 12:23:15;;;;;;;4.00;3.63;;;;;;;;;;5039603;28;20707;-50
2022/07/25 12:25:45;;;;;;;3.80;3.50;;;;;;;;;;5034828;28;20425;-50
2022/07/25 12:28:12;;;;;;;3.97;3.73;;;;;;;;;;5043504;28;20471;-50
2022/07/25 12:30:38;;;;;;;3.50;3.30;;;;;;;;;;5052986;28;20467;-50
2022/07/25 12:33:05;;;;;;;3.43;3.13;;;;;;;;;;5037603;28;20418;-50
2022/07/25 12:35:31;;;;;;;4.63;3.87;;;;;;;;;;5046066;28;20460;-51
2022/07/25 12:37:57;;;;;;;3.77;3.47;;;;;;;;;;5041785;28;20417;-50
2022/07/25 12:40:23;;;;;;;3.23;3.03;;;;;;;;;;5033768;28;20946;-50
2022/07/25 12:42:50;;;;;;;3.67;3.37;;;;;;;;;;5033707;28;20419;-52
2022/07/25 12:45:16;;;;;;;6.03;3.93;;;;;;;;;;5039250;28;20440;-51
2022/07/25 12:47:46;;;;;;;5.37;3.77;;;;;;;;;;5044386;28;20837;-51
2022/07/25 12:50:13;;;;;;;4.10;3.80;;;;;;;;;;5033510;28;20985;-51
2022/07/25 12:52:39;;;;;;;6.43;3.80;;;;;;;;;;5046953;28;20414;-53
2022/07/25 12:55:06;;;;;;;3.40;3.13;;;;;;;;;;5034648;28;20460;-51
2022/07/25 12:57:32;;;;;;;4.47;3.20;;;;;;;;;;5048255;28;20414;-51
2022/07/25 12:59:58;;;;;;;3.63;3.43;;;;;;;;;;5045713;28;20948;-52
2022/07/25 13:02:24;;;;;;;7.33;3.90;;;;;;;;;;5048917;28;20425;-52
2022/07/25 13:04:50;;;;;;;3.47;3.17;;;;;;;;;;5037631;28;20433;-52
2022/07/25 13:07:16;;;;;;;6.83;3.60;;;;;;;;;;5050534;28;20410;-53
2022/07/25 13:09:42;;;;;;;4.63;3.57;;;;;;;;;;5036019;28;20551;-52
2022/07/25 13:12:09;;;;;;;4.60;3.43;;;;;;;;;;5047649;28;20429;-53
2022/07/25 13:14:34;;;;;;;3.90;3.17;;;;;;;;;;5036828;28;20488;-52
2022/07/25 13:17:00;;;;;;;3.70;3.07;;;;;;;;;;5052742;28;20837;-52
2022/07/25 13:19:27;;;;;;;3.47;3.17;;;;;;;;;;5035319;28;20440;-52
2022/07/25 13:21:53;;;;;;;2.87;2.67;;;;;;;;;;5044686;28;20412;-53
2022/07/25 13:24:19;;;;;;;4.30;3.30;;;;;;;;;;5031352;28;21137;-53
2022/07/25 13:26:45;;;;;;;3.20;2.93;;;;;;;;;;5046138;28;20429;-52
2022/07/25 13:29:11;;;;;;;3.73;2.80;;;;;;;;;;5045615;28;20202;-52
2022/07/25 13:31:38;;;;;;;4.33;3.57;;;;;;;;;;5049110;28;20650;-52
2022/07/25 13:34:04;;;;;;;3.60;3.00;;;;;;;;;;5052884;28;20421;-50
2022/07/25 13:36:31;;;;;;;3.13;2.80;;;;;;;;;;5047135;28;20568;-50
2022/07/25 13:38:57;;;;;;;2.90;2.70;;;;;;;;;;5035610;28;20486;-51
2022/07/25 13:41:23;;;;;;;2.97;2.77;;;;;;;;;;5032980;28;20413;-50
2022/07/25 13:43:49;;;;;;;3.80;2.60;;;;;;;;;;5039708;28;20421;-51
2022/07/25 13:46:15;;;;;;;3.53;3.20;;;;;;;;;;5034299;28;20482;-51
2022/07/25 13:48:41;;;;;;;4.07;3.73;;;;;;;;;;5052326;28;20425;-51
2022/07/25 13:51:07;;;;;;;7.30;2.87;;;;;;;;;;5035835;28;20920;-51
2022/07/25 13:53:33;;;;;;;6.23;3.00;;;;;;;;;;5044018;28;20438;-50
2022/07/25 13:55:59;;;;;;;2.53;2.33;;;;;;;;;;5037597;28;20203;-49
2022/07/25 13:58:25;;;;;;;4.23;2.83;;;;;;;;;;5036856;28;20447;-49
2022/07/25 14:00:51;;;;;;;4.10;3.80;;;;;;;;;;5037902;28;20420;-50
2022/07/25 14:03:17;;;;;;;4.13;3.00;;;;;;;;;;5032962;28;20497;-50
2022/07/25 14:05:43;;;;;;;3.27;2.97;;;;;;;;;;5039016;28;20508;-50
2022/07/25 14:08:09;;;;;;;3.70;3.37;;;;;;;;;;5031922;28;20953;-50
2022/07/25 14:10:35;;;;;;;4.00;2.87;;;;;;;;;;5039868;28;20486;-50
2022/07/25 14:13:01;;;;;;;2.83;2.40;;;;;;;;;;5052487;28;20175;-50
2022/07/25 14:15:27;;;;;;;3.80;2.40;;;;;;;;;;5044516;28;20460;-52
2022/07/25 14:17:53;;;;;;;6.00;2.63;;;;;;;;;;5032829;28;20440;-51
2022/07/25 14:20:19;;;;;;;2.73;2.53;;;;;;;;;;5039173;28;20758;-50
2022/07/25 14:22:45;;;;;;;2.67;2.43;;;;;;;;;;5033375;28;20497;-49
2022/07/25 14:25:11;;;;;;;5.67;3.60;;;;;;;;;;5041849;28;20438;-49
2022/07/25 14:27:38;;;;;;;2.90;2.63;;;;;;;;;;5035031;28;20959;-50
2022/07/25 14:30:05;;;;;;;2.63;2.43;;;;;;;;;;5052661;28;20591;-49
2022/07/25 14:32:31;;;;;;;2.70;2.50;;;;;;;;;;5054067;28;20433;-49
2022/07/25 14:34:59;;;;;;;2.70;2.50;;;;;;;;;;5042547;28;20461;-49
2022/07/25 14:37:25;;;;;;;3.43;3.07;;;;;;;;;;5038697;28;20422;-49
2022/07/25 14:39:51;;;;;;;3.90;3.10;;;;;;;;;;5032880;28;20783;-49
2022/07/25 14:42:17;;;;;;;6.20;2.70;;;;;;;;;;5035153;28;20914;-50
2022/07/25 14:44:43;;;;;;;2.50;2.20;;;;;;;;;;5034490;28;20422;-52